Ship Status Report: callsign CFN5364

sailwx.info

Track history (hours):
 
Tides and Currents Weather Stations Pressure Air Temp Water Temp Dewpoint Dewpoint Depression Visibility Wind Speed Wind Dir Waves Ship Positions

Callsign CFN5364 (name unknown)

Last reported at 2017-Sep-26 23:39 UTC. Time now 2017-Oct-18 15:05 UTC.
Position N 54°18' W 130°21'.
Warning: this ship's position is 21 days out of date.

Date/timePositionNaut miles runAvg speedWind from/ knotsBaromVisibWave heightAir tempDewpointWater temp
2017-Sep-26 23:39N 54°18' W 130°21'0 0.0
2017-Sep-26 23:12N 54°18' W 130°21'1 4.7
2017-Sep-26 23:00N 54°17' W 130°22'714.8
2017-Sep-26 22:30N 54°10' W 130°22'815.7
2017-Sep-26 22:00N 54°05' W 130°32'714.0
2017-Sep-26 21:30N 54°03' W 130°44'815.6
2017-Sep-26 21:00N 53°57' W 130°52'816.2
2017-Sep-26 20:30N 53°52' W 131°03'14 1.3
2017-Sep-26 09:37N 53°43' W 131°21'213.6
2017-Sep-26 09:26N 53°44' W 131°18'613.5
2017-Sep-26 09:00N 53°48' W 131°10'713.5
2017-Sep-26 08:30N 53°53' W 131°01'713.4
2017-Sep-26 08:00N 53°57' W 130°53'4 8.6
2017-Sep-26 07:30N 53°60' W 130°47'4 7.0
2017-Sep-26 07:00N 54°03' W 130°45'5 9.4
2017-Sep-26 06:30N 54°03' W 130°37'611.6
2017-Sep-26 06:00N 54°06' W 130°29'612.2
2017-Sep-26 05:31N 54°10' W 130°21'713.7
2017-Sep-26 05:00N 54°17' W 130°22'1 1.9
2017-Sep-26 04:30N 54°18' W 130°21'0 0.0
2017-Sep-26 03:58N 54°18' W 130°21'0 0.0
2017-Sep-26 03:28N 54°18' W 130°21'0 0.0
2017-Sep-26 02:58N 54°18' W 130°21'0 0.0
2017-Sep-26 01:12N 54°18' W 130°21'0 0.0
2017-Sep-26 00:54N 54°18' W 130°21'0 0.0
2017-Sep-26 00:21N 54°18' W 130°21'0 0.0
2017-Sep-25 23:56N 54°18' W 130°21'0 0.1
2017-Sep-25 23:30N 54°18' W 130°21'510.8
2017-Sep-25 23:00N 54°12' W 130°21'612.8
2017-Sep-25 22:31N 54°07' W 130°27'714.2
2017-Sep-25 22:00N 54°03' W 130°36'611.8
2017-Sep-25 21:30N 54°01' W 130°46'814.7
2017-Sep-25 20:59N 53°56' W 130°56'714.9
2017-Sep-25 20:30N 53°51' W 131°05'914.6
2017-Sep-25 19:52N 53°45' W 131°17'0 0.0
2017-Sep-25 09:20N 53°45' W 131°17'413.4
2017-Sep-25 09:00N 53°48' W 131°12'713.4
2017-Sep-25 08:30N 53°52' W 131°03'713.5
2017-Sep-25 07:59N 53°56' W 130°54'613.3
2017-Sep-25 07:30N 54°01' W 130°46'5 9.7
2017-Sep-25 07:00N 54°03' W 130°39'611.4
2017-Sep-25 06:30N 54°06' W 130°30'612.8
2017-Sep-25 06:00N 54°10' W 130°22'714.2
2017-Sep-25 05:30N 54°17' W 130°22'1 2.3
2017-Sep-25 05:00N 54°18' W 130°21'0 0.0
2017-Sep-25 04:18N 54°18' W 130°21'0 0.0
2017-Sep-25 03:48N 54°18' W 130°21'0 0.0
2017-Sep-25 03:30N 54°18' W 130°21'0 0.0
2017-Sep-25 02:54N 54°18' W 130°21'0 0.0
2017-Sep-25 02:30N 54°18' W 130°21'0 0.0
2017-Sep-25 02:00N 54°18' W 130°21'0 0.0
2017-Sep-25 01:30N 54°18' W 130°21'0 0.0
2017-Sep-25 00:59N 54°18' W 130°21'0 0.0
2017-Sep-25 00:29N 54°18' W 130°21'0 0.0
2017-Sep-24 23:56N 54°18' W 130°21'0 0.0
2017-Sep-24 23:29N 54°18' W 130°21'0 0.0
2017-Sep-24 22:59N 54°18' W 130°21'0 0.0
2017-Sep-24 22:28N 54°18' W 130°21'0 0.0
2017-Sep-24 22:00N 54°18' W 130°21'2 4.4
2017-Sep-24 21:30N 54°16' W 130°21'816.2
2017-Sep-24 21:00N 54°08' W 130°19'816.4
2017-Sep-24 20:30N 54°00' W 130°13'714.8
2017-Sep-24 20:01N 53°54' W 130°07'916.4
2017-Sep-24 19:29N 53°48' W 129°57'9712.0
2017-Sep-24 11:25N 52°27' W 128°28'513.1
2017-Sep-24 11:00N 52°22' W 128°33'713.7
2017-Sep-24 10:30N 52°16' W 128°27'714.7
2017-Sep-24 10:00N 52°14' W 128°15'610.7
2017-Sep-24 09:25N 52°10' W 128°08'2 5.1
2017-Sep-24 09:00N 52°08' W 128°09'0 0.0
2017-Sep-24 07:57N 52°08' W 128°09'0 0.4
2017-Sep-24 07:30N 52°08' W 128°08'510.9
2017-Sep-24 07:00N 52°05' W 128°02'611.1
2017-Sep-24 06:30N 52°01' W 127°55'815.3
2017-Sep-24 06:00N 51°53' W 127°56'815.6
2017-Sep-24 05:30N 51°46' W 127°56'815.6
2017-Sep-24 05:00N 51°38' W 127°54'815.4
2017-Sep-24 04:30N 51°30' W 127°51'715.1
2017-Sep-24 04:00N 51°23' W 127°52'714.1
2017-Sep-24 03:30N 51°16' W 127°53'714.7
2017-Sep-24 03:00N 51°08' W 127°51'815.1
2017-Sep-24 02:30N 51°01' W 127°46'714.9
2017-Sep-24 02:00N 50°55' W 127°40'815.4
2017-Sep-24 01:30N 50°51' W 127°30'713.8
2017-Sep-24 00:59N 50°44' W 127°28'0 0.6
2017-Sep-24 00:27N 50°44' W 127°27'0 0.0
2017-Sep-23 23:57N 50°44' W 127°27'0 0.0
2017-Sep-23 23:21N 50°44' W 127°27'0 0.0
2017-Sep-23 21:08N 50°44' W 127°27'0 0.0
2017-Sep-23 20:56N 50°44' W 127°27'0 0.0
2017-Sep-23 20:20N 50°44' W 127°27'0 0.0
2017-Sep-23 19:43N 50°44' W 127°27'229 5.4
2017-Sep-22 00:51N 53°43' W 131°20'617.0
2017-Sep-22 00:30N 53°47' W 131°12'917.1
2017-Sep-22 00:00N 53°53' W 131°01'817.0
2017-Sep-21 23:30N 53°58' W 130°50'714.9
2017-Sep-21 23:00N 54°04' W 130°41'713.2
2017-Sep-21 22:30N 54°06' W 130°31'815.6
2017-Sep-21 22:00N 54°11' W 130°21'713.9
2017-Sep-21 21:30N 54°18' W 130°22'0 0.2
2017-Sep-21 19:30N 54°18' W 130°21'0 0.0
2017-Sep-21 18:38N 54°18' W 130°21'0 0.0
2017-Sep-21 18:26N 54°18' W 130°21'0 0.0
2017-Sep-21 17:59N 54°18' W 130°21'0 0.0
2017-Sep-21 17:30N 54°18' W 130°21'611.9
2017-Sep-21 17:01N 54°12' W 130°21'917.6
2017-Sep-21 16:30N 54°04' W 130°16'714.7
2017-Sep-21 16:00N 53°57' W 130°12'815.2
2017-Sep-21 15:30N 53°51' W 130°03'8916.1
2017-Sep-21 09:59N 52°40' W 128°32'1017.6
2017-Sep-21 09:23N 52°30' W 128°28'717.3
2017-Sep-21 09:00N 52°24' W 128°31'917.3
2017-Sep-21 08:30N 52°16' W 128°26'1020.3
2017-Sep-21 08:00N 52°13' W 128°10'5 9.4
2017-Sep-21 07:31N 52°09' W 128°08'1 0.9
2017-Sep-21 06:46N 52°08' W 128°09'0 0.0
2017-Sep-21 06:30N 52°08' W 128°09'1 2.5
2017-Sep-21 06:01N 52°07' W 128°08'816.4
2017-Sep-21 05:31N 52°04' W 127°56'1019.3
2017-Sep-21 05:01N 51°54' W 127°57'1019.2
2017-Sep-21 04:30N 51°45' W 127°55'918.3
2017-Sep-21 04:00N 51°35' W 127°53'917.6
2017-Sep-21 03:30N 51°27' W 127°51'918.0
2017-Sep-21 03:01N 51°18' W 127°52'918.2
2017-Sep-21 02:30N 51°09' W 127°50'1018.7
2017-Sep-21 02:00N 50°60' W 127°46'919.4
2017-Sep-21 01:30N 50°53' W 127°35'917.6
2017-Sep-21 01:00N 50°45' W 127°28'2 0.9
2017-Sep-20 22:58N 50°44' W 127°27'0 0.0
2017-Sep-20 22:22N 50°44' W 127°27'0 0.0
2017-Sep-20 21:57N 50°44' W 127°27'0 0.0
2017-Sep-20 21:27N 50°44' W 127°27'0 0.0
2017-Sep-20 20:40N 50°44' W 127°27'0 0.0
2017-Sep-20 20:27N 50°44' W 127°27'4 8.7
2017-Sep-20 20:00N 50°47' W 127°27'1019.7
2017-Sep-20 19:30N 50°54' W 127°38'1019.7
2017-Sep-20 19:00N 51°02' W 127°47'1019.8
2017-Sep-20 18:30N 51°12' W 127°51'1019.2
2017-Sep-20 17:59N 51°22' W 127°52'1020.2
2017-Sep-20 17:30N 51°31' W 127°52'1020.6
2017-Sep-20 17:00N 51°41' W 127°55'1020.6
2017-Sep-20 16:30N 51°52' W 127°56'1020.4
2017-Sep-20 16:00N 52°02' W 127°56'917.1
2017-Sep-20 15:30N 52°06' W 128°08'2 1.0
2017-Sep-20 13:17N 52°08' W 128°09'0 0.0
2017-Sep-20 13:00N 52°08' W 128°09'3 5.5
2017-Sep-20 12:29N 52°11' W 128°07'714.9
2017-Sep-20 12:00N 52°15' W 128°17'713.9
2017-Sep-20 11:30N 52°17' W 128°27'714.4
2017-Sep-20 11:00N 52°24' W 128°30'1415.5
2017-Sep-20 10:08N 52°38' W 128°30'318.3
2017-Sep-20 09:58N 52°40' W 128°32'7917.0
2017-Sep-20 05:19N 53°44' W 129°51'619.9
2017-Sep-20 05:00N 53°48' W 129°58'1019.5
2017-Sep-20 04:30N 53°55' W 130°10'918.1
2017-Sep-20 04:01N 54°03' W 130°16'918.9
2017-Sep-20 03:30N 54°12' W 130°21'6 4.6
2017-Sep-20 02:15N 54°18' W 130°21'0 0.0
2017-Sep-20 01:57N 54°18' W 130°21'0 0.0
2017-Sep-20 01:26N 54°18' W 130°21'0 0.0
2017-Sep-20 00:56N 54°18' W 130°21'0 0.0
2017-Sep-19 23:38N 54°18' W 130°21'0 0.0
2017-Sep-19 23:19N 54°18' W 130°21'0 0.0
2017-Sep-19 23:00N 54°18' W 130°21'612.8
2017-Sep-19 22:30N 54°12' W 130°21'918.3
2017-Sep-19 22:00N 54°05' W 130°32'816.1
2017-Sep-19 21:30N 54°03' W 130°45'918.4
2017-Sep-19 21:00N 53°56' W 130°56'1019.0
2017-Sep-19 20:30N 53°50' W 131°08'918.8
2017-Sep-19 20:00N 53°43' W 131°20'1 0.1
2017-Sep-19 09:15N 53°42' W 131°21'311.2
2017-Sep-19 09:00N 53°44' W 131°18'611.2
2017-Sep-19 08:30N 53°48' W 131°11'611.4
2017-Sep-19 08:00N 53°52' W 131°04'612.5
2017-Sep-19 07:30N 53°56' W 130°56'917.1
2017-Sep-19 07:00N 54°02' W 130°45'510.6
2017-Sep-19 06:30N 54°03' W 130°36'611.4
2017-Sep-19 06:00N 54°06' W 130°29'612.3
2017-Sep-19 05:30N 54°10' W 130°21'713.8
2017-Sep-19 04:59N 54°17' W 130°22'1 0.5
2017-Sep-19 03:58N 54°18' W 130°21'0 0.0
2017-Sep-19 02:57N 54°18' W 130°21'0 0.0
2017-Sep-19 00:26N 54°18' W 130°21'0 0.0
2017-Sep-18 23:56N 54°18' W 130°21'1 1.2
2017-Sep-18 23:30N 54°17' W 130°22'612.5
2017-Sep-18 23:00N 54°11' W 130°21'714.2
2017-Sep-18 22:30N 54°06' W 130°29'713.2
2017-Sep-18 22:00N 54°03' W 130°39'612.8
2017-Sep-18 21:30N 53°59' W 130°48'816.4
2017-Sep-18 20:59N 53°54' W 130°59'10 0.8
2017-Sep-18 08:52N 53°47' W 131°12'612.8
2017-Sep-18 08:23N 53°52' W 131°04'513.4
2017-Sep-18 08:00N 53°55' W 130°58'713.1
2017-Sep-18 07:30N 53°59' W 130°49'612.2
2017-Sep-18 06:59N 54°04' W 130°42'511.2
2017-Sep-18 06:30N 54°04' W 130°33'612.5
2017-Sep-18 06:00N 54°08' W 130°26'611.2
2017-Sep-18 05:30N 54°13' W 130°21'5 0.7
2017-Sep-17 22:13N 54°18' W 130°21'1 3.2
2017-Sep-17 22:00N 54°17' W 130°22'611.4
2017-Sep-17 21:30N 54°12' W 130°21'714.0
2017-Sep-17 21:00N 54°05' W 130°17'714.2
2017-Sep-17 20:31N 53°59' W 130°12'713.2
2017-Sep-17 20:00N 53°53' W 130°05'9512.7
2017-Sep-17 12:32N 52°37' W 128°32'9 6.7
2017-Sep-17 11:11N 52°28' W 128°27'313.2
2017-Sep-17 10:59N 52°26' W 128°28'612.7
2017-Sep-17 10:29N 52°20' W 128°31'1811.0
2017-Sep-17 08:54N 52°09' W 128°08'0 0.2
2017-Sep-17 06:55N 52°08' W 128°08'912.6
2017-Sep-17 06:12N 52°04' W 127°55'317.6
2017-Sep-17 06:00N 52°00' W 127°55'917.7
2017-Sep-17 05:30N 51°52' W 127°56'917.2
2017-Sep-17 05:00N 51°43' W 127°55'917.8
2017-Sep-17 04:30N 51°34' W 127°52'917.6
2017-Sep-17 03:59N 51°25' W 127°51'918.1
2017-Sep-17 03:28N 51°16' W 127°53'817.7
2017-Sep-17 03:00N 51°08' W 127°49'917.0
2017-Sep-17 02:29N 50°59' W 127°45'816.2
2017-Sep-17 02:00N 50°53' W 127°37'917.1
2017-Sep-17 01:30N 50°48' W 127°27'  
Track history (hours):
 
Tides and Currents Weather Stations Pressure Air Temp Water Temp Dewpoint Dewpoint Depression Visibility Wind Speed Wind Dir Waves Ship Positions

Callsign CFN5364 (name unknown)

Last reported at 2017-Sep-26 23:39 UTC. Time now 2017-Oct-18 15:05 UTC.
Position N 54°18' W 130°21'.
Warning: this ship's position is 21 days out of date.

Date/timePositionNaut miles runAvg speedWind from/ knotsBaromVisibWave heightAir tempDewpointWater temp
2017-Sep-26 23:39N 54°18' W 130°21'0 0.0
2017-Sep-26 23:12N 54°18' W 130°21'1 4.7
2017-Sep-26 23:00N 54°17' W 130°22'714.8
2017-Sep-26 22:30N 54°10' W 130°22'815.7
2017-Sep-26 22:00N 54°05' W 130°32'714.0
2017-Sep-26 21:30N 54°03' W 130°44'815.6
2017-Sep-26 21:00N 53°57' W 130°52'816.2
2017-Sep-26 20:30N 53°52' W 131°03'14 1.3
2017-Sep-26 09:37N 53°43' W 131°21'213.6
2017-Sep-26 09:26N 53°44' W 131°18'613.5
2017-Sep-26 09:00N 53°48' W 131°10'713.5
2017-Sep-26 08:30N 53°53' W 131°01'713.4
2017-Sep-26 08:00N 53°57' W 130°53'4 8.6
2017-Sep-26 07:30N 53°60' W 130°47'4 7.0
2017-Sep-26 07:00N 54°03' W 130°45'5 9.4
2017-Sep-26 06:30N 54°03' W 130°37'611.6
2017-Sep-26 06:00N 54°06' W 130°29'612.2
2017-Sep-26 05:31N 54°10' W 130°21'713.7
2017-Sep-26 05:00N 54°17' W 130°22'1 1.9
2017-Sep-26 04:30N 54°18' W 130°21'0 0.0
2017-Sep-26 03:58N 54°18' W 130°21'0 0.0
2017-Sep-26 03:28N 54°18' W 130°21'0 0.0
2017-Sep-26 02:58N 54°18' W 130°21'0 0.0
2017-Sep-26 01:12N 54°18' W 130°21'0 0.0
2017-Sep-26 00:54N 54°18' W 130°21'0 0.0
2017-Sep-26 00:21N 54°18' W 130°21'0 0.0
2017-Sep-25 23:56N 54°18' W 130°21'0 0.1
2017-Sep-25 23:30N 54°18' W 130°21'510.8
2017-Sep-25 23:00N 54°12' W 130°21'612.8
2017-Sep-25 22:31N 54°07' W 130°27'714.2
2017-Sep-25 22:00N 54°03' W 130°36'611.8
2017-Sep-25 21:30N 54°01' W 130°46'814.7
2017-Sep-25 20:59N 53°56' W 130°56'714.9
2017-Sep-25 20:30N 53°51' W 131°05'914.6
2017-Sep-25 19:52N 53°45' W 131°17'0 0.0
2017-Sep-25 09:20N 53°45' W 131°17'413.4
2017-Sep-25 09:00N 53°48' W 131°12'713.4
2017-Sep-25 08:30N 53°52' W 131°03'713.5
2017-Sep-25 07:59N 53°56' W 130°54'613.3
2017-Sep-25 07:30N 54°01' W 130°46'5 9.7
2017-Sep-25 07:00N 54°03' W 130°39'611.4
2017-Sep-25 06:30N 54°06' W 130°30'612.8
2017-Sep-25 06:00N 54°10' W 130°22'714.2
2017-Sep-25 05:30N 54°17' W 130°22'1 2.3
2017-Sep-25 05:00N 54°18' W 130°21'0 0.0
2017-Sep-25 04:18N 54°18' W 130°21'0 0.0
2017-Sep-25 03:48N 54°18' W 130°21'0 0.0
2017-Sep-25 03:30N 54°18' W 130°21'0 0.0
2017-Sep-25 02:54N 54°18' W 130°21'0 0.0
2017-Sep-25 02:30N 54°18' W 130°21'0 0.0
2017-Sep-25 02:00N 54°18' W 130°21'0 0.0
2017-Sep-25 01:30N 54°18' W 130°21'0 0.0
2017-Sep-25 00:59N 54°18' W 130°21'0 0.0
2017-Sep-25 00:29N 54°18' W 130°21'0 0.0
2017-Sep-24 23:56N 54°18' W 130°21'0 0.0
2017-Sep-24 23:29N 54°18' W 130°21'0 0.0
2017-Sep-24 22:59N 54°18' W 130°21'0 0.0
2017-Sep-24 22:28N 54°18' W 130°21'0 0.0
2017-Sep-24 22:00N 54°18' W 130°21'2 4.4
2017-Sep-24 21:30N 54°16' W 130°21'816.2
2017-Sep-24 21:00N 54°08' W 130°19'816.4
2017-Sep-24 20:30N 54°00' W 130°13'714.8
2017-Sep-24 20:01N 53°54' W 130°07'916.4
2017-Sep-24 19:29N 53°48' W 129°57'9712.0
2017-Sep-24 11:25N 52°27' W 128°28'513.1
2017-Sep-24 11:00N 52°22' W 128°33'713.7
2017-Sep-24 10:30N 52°16' W 128°27'714.7
2017-Sep-24 10:00N 52°14' W 128°15'610.7
2017-Sep-24 09:25N 52°10' W 128°08'2 5.1
2017-Sep-24 09:00N 52°08' W 128°09'0 0.0
2017-Sep-24 07:57N 52°08' W 128°09'0 0.4
2017-Sep-24 07:30N 52°08' W 128°08'510.9
2017-Sep-24 07:00N 52°05' W 128°02'611.1
2017-Sep-24 06:30N 52°01' W 127°55'815.3
2017-Sep-24 06:00N 51°53' W 127°56'815.6
2017-Sep-24 05:30N 51°46' W 127°56'815.6
2017-Sep-24 05:00N 51°38' W 127°54'815.4
2017-Sep-24 04:30N 51°30' W 127°51'715.1
2017-Sep-24 04:00N 51°23' W 127°52'714.1
2017-Sep-24 03:30N 51°16' W 127°53'714.7
2017-Sep-24 03:00N 51°08' W 127°51'815.1
2017-Sep-24 02:30N 51°01' W 127°46'714.9
2017-Sep-24 02:00N 50°55' W 127°40'815.4
2017-Sep-24 01:30N 50°51' W 127°30'713.8
2017-Sep-24 00:59N 50°44' W 127°28'0 0.6
2017-Sep-24 00:27N 50°44' W 127°27'0 0.0
2017-Sep-23 23:57N 50°44' W 127°27'0 0.0
2017-Sep-23 23:21N 50°44' W 127°27'0 0.0
2017-Sep-23 21:08N 50°44' W 127°27'0 0.0
2017-Sep-23 20:56N 50°44' W 127°27'0 0.0
2017-Sep-23 20:20N 50°44' W 127°27'0 0.0
2017-Sep-23 19:43N 50°44' W 127°27'229 5.4
2017-Sep-22 00:51N 53°43' W 131°20'617.0
2017-Sep-22 00:30N 53°47' W 131°12'917.1
2017-Sep-22 00:00N 53°53' W 131°01'817.0
2017-Sep-21 23:30N 53°58' W 130°50'714.9
2017-Sep-21 23:00N 54°04' W 130°41'713.2
2017-Sep-21 22:30N 54°06' W 130°31'815.6
2017-Sep-21 22:00N 54°11' W 130°21'713.9
2017-Sep-21 21:30N 54°18' W 130°22'0 0.2
2017-Sep-21 19:30N 54°18' W 130°21'0 0.0
2017-Sep-21 18:38N 54°18' W 130°21'0 0.0
2017-Sep-21 18:26N 54°18' W 130°21'0 0.0
2017-Sep-21 17:59N 54°18' W 130°21'0 0.0
2017-Sep-21 17:30N 54°18' W 130°21'611.9
2017-Sep-21 17:01N 54°12' W 130°21'917.6
2017-Sep-21 16:30N 54°04' W 130°16'714.7
2017-Sep-21 16:00N 53°57' W 130°12'815.2
2017-Sep-21 15:30N 53°51' W 130°03'8916.1
2017-Sep-21 09:59N 52°40' W 128°32'1017.6
2017-Sep-21 09:23N 52°30' W 128°28'717.3
2017-Sep-21 09:00N 52°24' W 128°31'917.3
2017-Sep-21 08:30N 52°16' W 128°26'1020.3
2017-Sep-21 08:00N 52°13' W 128°10'5 9.4
2017-Sep-21 07:31N 52°09' W 128°08'1 0.9
2017-Sep-21 06:46N 52°08' W 128°09'0 0.0
2017-Sep-21 06:30N 52°08' W 128°09'1 2.5
2017-Sep-21 06:01N 52°07' W 128°08'816.4
2017-Sep-21 05:31N 52°04' W 127°56'1019.3
2017-Sep-21 05:01N 51°54' W 127°57'1019.2
2017-Sep-21 04:30N 51°45' W 127°55'918.3
2017-Sep-21 04:00N 51°35' W 127°53'917.6
2017-Sep-21 03:30N 51°27' W 127°51'918.0
2017-Sep-21 03:01N 51°18' W 127°52'918.2
2017-Sep-21 02:30N 51°09' W 127°50'1018.7
2017-Sep-21 02:00N 50°60' W 127°46'919.4
2017-Sep-21 01:30N 50°53' W 127°35'917.6
2017-Sep-21 01:00N 50°45' W 127°28'2 0.9
2017-Sep-20 22:58N 50°44' W 127°27'0 0.0
2017-Sep-20 22:22N 50°44' W 127°27'0 0.0
2017-Sep-20 21:57N 50°44' W 127°27'0 0.0
2017-Sep-20 21:27N 50°44' W 127°27'0 0.0
2017-Sep-20 20:40N 50°44' W 127°27'0 0.0
2017-Sep-20 20:27N 50°44' W 127°27'4 8.7
2017-Sep-20 20:00N 50°47' W 127°27'1019.7
2017-Sep-20 19:30N 50°54' W 127°38'1019.7
2017-Sep-20 19:00N 51°02' W 127°47'1019.8
2017-Sep-20 18:30N 51°12' W 127°51'1019.2
2017-Sep-20 17:59N 51°22' W 127°52'1020.2
2017-Sep-20 17:30N 51°31' W 127°52'1020.6
2017-Sep-20 17:00N 51°41' W 127°55'1020.6
2017-Sep-20 16:30N 51°52' W 127°56'1020.4
2017-Sep-20 16:00N 52°02' W 127°56'917.1
2017-Sep-20 15:30N 52°06' W 128°08'2 1.0
2017-Sep-20 13:17N 52°08' W 128°09'0 0.0
2017-Sep-20 13:00N 52°08' W 128°09'3 5.5
2017-Sep-20 12:29N 52°11' W 128°07'714.9
2017-Sep-20 12:00N 52°15' W 128°17'713.9
2017-Sep-20 11:30N 52°17' W 128°27'714.4
2017-Sep-20 11:00N 52°24' W 128°30'1415.5
2017-Sep-20 10:08N 52°38' W 128°30'318.3
2017-Sep-20 09:58N 52°40' W 128°32'7917.0
2017-Sep-20 05:19N 53°44' W 129°51'619.9
2017-Sep-20 05:00N 53°48' W 129°58'1019.5
2017-Sep-20 04:30N 53°55' W 130°10'918.1
2017-Sep-20 04:01N 54°03' W 130°16'918.9
2017-Sep-20 03:30N 54°12' W 130°21'6 4.6
2017-Sep-20 02:15N 54°18' W 130°21'0 0.0
2017-Sep-20 01:57N 54°18' W 130°21'0 0.0
2017-Sep-20 01:26N 54°18' W 130°21'0 0.0
2017-Sep-20 00:56N 54°18' W 130°21'0 0.0
2017-Sep-19 23:38N 54°18' W 130°21'0 0.0
2017-Sep-19 23:19N 54°18' W 130°21'0 0.0
2017-Sep-19 23:00N 54°18' W 130°21'612.8
2017-Sep-19 22:30N 54°12' W 130°21'918.3
2017-Sep-19 22:00N 54°05' W 130°32'816.1
2017-Sep-19 21:30N 54°03' W 130°45'918.4
2017-Sep-19 21:00N 53°56' W 130°56'1019.0
2017-Sep-19 20:30N 53°50' W 131°08'918.8
2017-Sep-19 20:00N 53°43' W 131°20'1 0.1
2017-Sep-19 09:15N 53°42' W 131°21'311.2
2017-Sep-19 09:00N 53°44' W 131°18'611.2
2017-Sep-19 08:30N 53°48' W 131°11'611.4
2017-Sep-19 08:00N 53°52' W 131°04'612.5
2017-Sep-19 07:30N 53°56' W 130°56'917.1
2017-Sep-19 07:00N 54°02' W 130°45'510.6
2017-Sep-19 06:30N 54°03' W 130°36'611.4
2017-Sep-19 06:00N 54°06' W 130°29'612.3
2017-Sep-19 05:30N 54°10' W 130°21'713.8
2017-Sep-19 04:59N 54°17' W 130°22'1 0.5
2017-Sep-19 03:58N 54°18' W 130°21'0 0.0
2017-Sep-19 02:57N 54°18' W 130°21'0 0.0
2017-Sep-19 00:26N 54°18' W 130°21'0 0.0
2017-Sep-18 23:56N 54°18' W 130°21'1 1.2
2017-Sep-18 23:30N 54°17' W 130°22'612.5
2017-Sep-18 23:00N 54°11' W 130°21'714.2
2017-Sep-18 22:30N 54°06' W 130°29'713.2
2017-Sep-18 22:00N 54°03' W 130°39'612.8
2017-Sep-18 21:30N 53°59' W 130°48'816.4
2017-Sep-18 20:59N 53°54' W 130°59'10 0.8
2017-Sep-18 08:52N 53°47' W 131°12'612.8
2017-Sep-18 08:23N 53°52' W 131°04'513.4
2017-Sep-18 08:00N 53°55' W 130°58'713.1
2017-Sep-18 07:30N 53°59' W 130°49'612.2
2017-Sep-18 06:59N 54°04' W 130°42'511.2
2017-Sep-18 06:30N 54°04' W 130°33'612.5
2017-Sep-18 06:00N 54°08' W 130°26'611.2
2017-Sep-18 05:30N 54°13' W 130°21'5 0.7
2017-Sep-17 22:13N 54°18' W 130°21'1 3.2
2017-Sep-17 22:00N 54°17' W 130°22'611.4
2017-Sep-17 21:30N 54°12' W 130°21'714.0
2017-Sep-17 21:00N 54°05' W 130°17'714.2
2017-Sep-17 20:31N 53°59' W 130°12'713.2
2017-Sep-17 20:00N 53°53' W 130°05'9512.7
2017-Sep-17 12:32N 52°37' W 128°32'9 6.7
2017-Sep-17 11:11N 52°28' W 128°27'313.2
2017-Sep-17 10:59N 52°26' W 128°28'612.7
2017-Sep-17 10:29N 52°20' W 128°31'1811.0
2017-Sep-17 08:54N 52°09' W 128°08'0 0.2
2017-Sep-17 06:55N 52°08' W 128°08'912.6
2017-Sep-17 06:12N 52°04' W 127°55'317.6
2017-Sep-17 06:00N 52°00' W 127°55'917.7
2017-Sep-17 05:30N 51°52' W 127°56'917.2
2017-Sep-17 05:00N 51°43' W 127°55'917.8
2017-Sep-17 04:30N 51°34' W 127°52'917.6
2017-Sep-17 03:59N 51°25' W 127°51'918.1
2017-Sep-17 03:28N 51°16' W 127°53'817.7
2017-Sep-17 03:00N 51°08' W 127°49'917.0
2017-Sep-17 02:29N 50°59' W 127°45'816.2
2017-Sep-17 02:00N 50°53' W 127°37'917.1
2017-Sep-17 01:30N 50°48' W 127°27'  

Dump ship's entire track history